Time;durP1;ratioP1;P1;durP2;ratioP2;P2;SDS_P1;SDS_P2;PMS_P1;PMS_P2;Temp;Humidity;BMP_temperature;BMP_pressure;BME280_temperature;BME280_humidity;BME280_pressure;Samples;Min_cycle;Max_cycle;Signal;HPM_P1;HPM_P2
2022/11/03 00:01:38;;;;;;;;;;;13.90;99.90;;;14.11;75.02;101078.53;5130955;27;20301;-76
2022/11/03 00:04:08;;;;;;;;;;;14.00;99.90;;;14.17;74.93;101094.38;5114621;28;19920;-75
2022/11/03 00:06:36;;;;;;;;;;;13.90;99.90;;;13.96;74.97;101041.50;5114308;28;19927;-77
2022/11/03 00:09:06;;;;;;;;;;;14.00;99.90;;;14.15;75.20;101093.53;5113986;28;19933;-81
2022/11/03 00:11:36;;;;;;;;;;;14.00;99.90;;;13.24;75.75;100940.69;5114138;28;19923;-73
2022/11/03 00:14:05;;;;;;;;;;;13.90;99.90;;;13.90;75.85;101063.75;5113946;28;19919;-81
2022/11/03 00:16:33;;;;;;;;;;;13.80;99.90;;;13.85;76.20;101049.66;5114006;28;19919;-84
2022/11/03 00:19:04;;;;;;;;;;;13.80;99.90;;;14.05;75.85;101087.44;5130161;28;19969;-78
2022/11/03 00:21:32;;;;;;;;;;;13.90;99.90;;;13.93;76.00;101038.91;5113794;28;19920;-74
2022/11/03 00:24:01;;;;;;;;;;;13.90;99.90;;;14.02;76.12;101065.34;5114063;28;19920;-74
2022/11/03 00:26:30;;;;;;;;;;;13.90;99.90;;;13.86;76.04;101016.84;5113918;28;19924;-74
2022/11/03 00:29:00;;;;;;;;;;;13.90;99.90;;;14.01;75.74;101052.97;5129589;28;19930;-73
2022/11/03 00:31:29;;;;;;;;;;;13.90;99.90;;;14.02;76.22;101047.63;5114017;28;19927;-76
2022/11/03 00:33:59;;;;;;;;;;;13.90;99.90;;;14.17;76.15;101070.41;5114842;28;19926;-88
2022/11/03 00:36:29;;;;;;;;;;;14.00;99.90;;;12.34;75.95;100745.53;5113027;28;19955;-81
2022/11/03 00:38:58;;;;;;;;;;;14.00;99.90;;;14.17;76.12;101049.13;5113870;28;19927;-78
2022/11/03 00:41:26;;;;;;;;;;;14.00;99.90;;;14.13;76.30;101044.81;5116703;28;19920;-84
2022/11/03 00:43:56;;;;;;;;;;;14.00;99.90;;;14.13;76.61;101052.78;5117814;28;19920;-86
2022/11/03 00:46:25;;;;;;;;;;;14.00;99.90;;;14.06;76.39;101035.16;5118125;28;19926;-82
2022/11/03 00:48:54;;;;;;;;;;;14.00;99.90;;;14.08;77.02;101028.00;5118031;28;20377;-80
2022/11/03 00:51:23;;;;;;;;;;;14.00;99.90;;;14.10;77.36;101084.72;5117840;28;19920;-84
2022/11/03 00:53:54;;;;;;;;;;;13.90;99.90;;;14.10;77.39;101039.50;5117801;28;20018;-82
2022/11/03 00:56:23;;;;;;;;;;;13.90;99.90;;;13.62;77.13;100933.94;5134134;27;19988;-83
2022/11/03 00:58:53;;;;;;;;;;;14.00;99.90;;;14.15;77.83;101043.00;5117973;28;19958;-83
2022/11/03 01:01:22;;;;;;;;;;;13.90;99.90;;;14.21;77.61;101051.75;5118721;28;20023;-82
2022/11/03 01:06:49;;;;;;;;;;;14.00;99.90;;;14.29;77.56;101031.25;5117764;28;19924;-83
2022/11/03 01:09:20;;;;;;;;;;;14.00;99.90;;;14.34;77.53;101032.03;5117897;28;19941;-83
2022/11/03 01:11:53;;;;;;;;;;;14.10;99.90;;;14.38;77.28;101024.91;5117643;28;19920;-83
2022/11/03 01:14:25;;;;;;;;;;;14.10;99.90;;;14.33;77.79;101002.78;5118237;28;20373;-83
2022/11/03 01:16:53;;;;;;;;;;;14.20;99.90;;;13.93;77.96;100986.59;5116550;28;20014;-83
2022/11/03 01:19:22;;;;;;;;;;;14.10;99.90;;;14.06;78.05;100992.59;5118003;28;19920;-82
2022/11/03 01:21:50;;;;;;;;;;;14.10;99.90;;;14.22;78.59;101036.66;5117707;28;19951;-83
2022/11/03 01:24:20;;;;;;;;;;;14.00;99.90;;;13.86;79.04;100978.75;5117488;28;19920;-84
2022/11/03 01:26:49;;;;;;;;;;;14.00;99.90;;;13.77;78.88;100933.69;5133167;27;19955;-84
2022/11/03 01:29:17;;;;;;;;;;;14.00;99.90;;;13.73;78.94;100929.31;5116914;28;19920;-84
2022/11/03 01:31:45;;;;;;;;;;;14.10;99.90;;;14.07;78.58;100962.44;5117501;28;19920;-84
2022/11/03 01:34:15;;;;;;;;;;;14.10;99.90;;;14.18;78.64;100985.28;5116937;28;20314;-84
2022/11/03 01:36:44;;;;;;;;;;;14.10;99.90;;;14.29;78.63;101007.28;5132972;27;19919;-83
2022/11/03 01:39:13;;;;;;;;;;;14.10;99.90;;;14.04;78.83;100963.34;5116618;28;19919;-83
2022/11/03 01:41:45;;;;;;;;;;;14.10;99.90;;;14.28;79.01;100994.03;5132701;27;19919;-84
2022/11/03 01:44:34;;;;;;;;;;;14.10;99.90;;;14.25;79.30;100994.91;5132428;27;19969;-84
2022/11/03 01:47:20;;;;;;;;;;;14.10;99.90;;;14.13;79.46;100979.16;5132645;27;20293;-84
2022/11/03 01:49:50;;;;;;;;;;;14.10;99.90;;;14.18;79.40;101001.25;5115418;28;19919;-84
2022/11/03 01:52:22;;;;;;;;;;;14.00;99.90;;;14.08;79.86;100996.09;5114252;28;19941;-84
2022/11/03 01:54:55;;;;;;;;;;;13.90;99.90;;;14.02;79.82;100974.91;5132461;27;19934;-84
2022/11/03 01:57:28;;;;;;;;;;;13.90;99.90;;;13.91;80.11;100945.84;5116319;28;19977;-86
2022/11/03 01:59:58;;;;;;;;;;;13.90;99.90;;;14.11;80.20;100996.06;5116266;28;19919;-86
2022/11/03 02:02:27;;;;;;;;;;;14.00;99.90;;;14.21;79.67;101008.28;5132192;27;19920;-85
2022/11/03 02:04:57;;;;;;;;;;;14.10;99.90;;;14.28;79.65;100962.09;5132381;27;20317;-82
2022/11/03 02:07:28;;;;;;;;;;;14.10;99.90;;;14.27;79.76;100973.59;5116443;28;19919;-85
2022/11/03 02:09:56;;;;;;;;;;;14.10;99.90;;;14.15;79.80;100945.41;5115106;28;19919;-84
2022/11/03 02:12:26;;;;;;;;;;;14.10;99.90;;;14.24;79.60;100950.59;5115043;28;19926;-84
2022/11/03 02:14:58;;;;;;;;;;;14.00;99.90;;;13.85;80.03;100892.78;5115809;28;19965;-84
2022/11/03 02:17:28;;;;;;;;;;;14.00;99.90;;;14.26;80.12;100938.16;5115953;28;19919;-83
2022/11/03 02:19:58;;;;;;;;;;;14.10;99.90;;;13.94;80.55;100940.47;5115780;28;19926;-84
2022/11/03 02:22:44;;;;;;;;;;;14.00;99.90;;;12.61;80.44;100653.16;5116104;28;19972;-83
2022/11/03 02:25:17;;;;;;;;;;;14.00;99.90;;;14.10;80.71;100912.72;5116048;28;19920;-82
2022/11/03 02:27:47;;;;;;;;;;;14.00;99.90;;;14.14;80.89;100937.47;5115724;28;19926;-84
2022/11/03 02:30:16;;;;;;;;;;;14.00;99.90;;;14.14;81.05;100930.38;5115576;28;19927;-83
2022/11/03 02:32:55;;;;;;;;;;;14.00;99.90;;;13.04;81.08;100730.34;5115809;28;19972;-85
2022/11/03 02:35:28;;;;;;;;;;;13.90;99.90;;;14.10;81.60;100931.34;5114705;28;19924;-84
2022/11/03 02:37:59;;;;;;;;;;;13.90;99.90;;;13.92;81.68;100914.81;5115802;28;20346;-83
2022/11/03 02:40:30;;;;;;;;;;;13.90;99.90;;;13.92;81.84;100862.50;5115542;28;19919;-82
2022/11/03 02:43:01;;;;;;;;;;;13.90;99.90;;;13.86;81.39;100841.34;5115388;28;19926;-83
2022/11/03 02:45:30;;;;;;;;;;;14.00;99.90;;;14.17;81.57;100927.66;5115723;28;20017;-84
2022/11/03 02:48:00;;;;;;;;;;;14.00;99.90;;;14.15;81.58;100980.00;5115345;28;19981;-83
2022/11/03 02:50:30;;;;;;;;;;;14.00;99.90;;;13.85;81.73;100825.44;5115257;28;20002;-84
2022/11/03 02:52:58;;;;;;;;;;;14.00;99.90;;;13.12;81.38;100685.06;5114086;28;19919;-84
2022/11/03 02:55:34;;;;;;;;;;;14.00;99.90;;;14.15;81.52;100884.25;5115564;28;19920;-84
2022/11/03 02:58:08;;;;;;;;;;;14.00;99.90;;;14.20;81.98;100870.84;5115045;28;19955;-84
2022/11/03 03:00:46;;;;;;;;;;;14.00;99.90;;;14.20;81.84;100877.06;5114112;28;20356;-84
2022/11/03 03:03:19;;;;;;;;;;;14.00;99.90;;;14.07;81.69;100838.28;5114923;28;19954;-85
2022/11/03 03:05:48;;;;;;;;;;;14.00;99.90;;;14.09;81.73;100830.28;5131099;27;20351;-84
2022/11/03 03:08:16;;;;;;;;;;;14.00;99.90;;;14.11;81.62;100842.63;5130633;27;19920;-84
2022/11/03 03:10:45;;;;;;;;;;;14.00;99.90;;;14.25;81.68;100861.88;5114983;28;20018;-84
2022/11/03 03:13:18;;;;;;;;;;;14.00;99.90;;;14.05;81.89;100837.44;5113879;28;19924;-84
2022/11/03 03:15:48;;;;;;;;;;;14.00;99.90;;;14.09;81.89;100812.53;5114722;28;20364;-84
2022/11/03 03:18:21;;;;;;;;;;;14.00;99.90;;;14.14;81.79;100847.03;5114584;28;20331;-84
2022/11/03 03:20:54;;;;;;;;;;;14.00;99.90;;;14.20;82.36;100858.44;5115008;28;19920;-84
2022/11/03 03:23:24;;;;;;;;;;;14.00;99.90;;;14.17;82.69;100846.97;5114935;28;19924;-82
2022/11/03 03:25:55;;;;;;;;;;;14.00;99.90;;;14.08;82.50;100832.06;5114510;28;19919;-85
2022/11/03 03:28:28;;;;;;;;;;;13.90;99.90;;;14.16;82.46;100838.13;5114858;28;19919;-84
2022/11/03 03:30:57;;;;;;;;;;;14.10;99.90;;;13.94;82.50;100775.59;5114514;28;19965;-84
2022/11/03 03:33:26;;;;;;;;;;;14.00;99.90;;;14.31;82.38;100823.66;5114347;28;19919;-84
2022/11/03 03:35:56;;;;;;;;;;;14.10;99.90;;;14.32;82.33;100836.94;5113297;28;19920;-84
2022/11/03 03:38:29;;;;;;;;;;;14.10;99.90;;;14.26;82.32;100822.84;5114614;28;19920;-83
2022/11/03 03:41:01;;;;;;;;;;;14.10;99.90;;;14.25;82.49;100829.06;5114388;28;19925;-84
2022/11/03 03:43:36;;;;;;;;;;;14.10;99.90;;;14.23;82.21;100804.28;5114252;28;19959;-84
2022/11/03 03:46:07;;;;;;;;;;;14.20;99.90;;;14.29;82.31;100793.53;5114319;28;19959;-84
2022/11/03 03:48:36;;;;;;;;;;;14.10;99.90;;;14.37;82.27;100872.31;5113213;28;19920;-84
2022/11/03 03:51:05;;;;;;;;;;;14.10;99.90;;;14.39;82.09;100843.00;5114148;28;20277;-84
2022/11/03 03:53:33;;;;;;;;;;;14.20;99.90;;;14.25;82.50;100802.47;5113208;28;19926;-84
2022/11/03 03:56:04;;;;;;;;;;;14.10;99.90;;;14.26;82.63;100804.22;5114160;28;19974;-83
2022/11/03 03:58:32;;;;;;;;;;;14.10;99.90;;;14.14;82.58;100792.06;5114541;28;20360;-83
2022/11/03 04:01:02;;;;;;;;;;;14.10;99.90;;;14.29;82.57;100841.44;5114356;28;19919;-83
2022/11/03 04:03:30;;;;;;;;;;;14.10;99.90;;;14.20;82.60;100791.94;5113170;28;19919;-84
2022/11/03 04:05:58;;;;;;;;;;;14.10;99.90;;;14.31;82.72;100824.53;5114465;28;19920;-84
2022/11/03 04:08:27;;;;;;;;;;;14.10;99.90;;;14.33;82.60;100798.78;5129840;28;19920;-84
2022/11/03 04:22:17;;;;;;;;;;;14.10;99.90;;;13.81;83.25;100728.00;5118477;28;19919;-84
2022/11/03 04:24:46;;;;;;;;;;;14.10;99.90;;;14.07;83.72;100786.88;5118077;28;20376;-85
2022/11/03 04:27:29;;;;;;;;;;;14.00;99.90;;;14.06;84.27;100770.03;5118532;28;19920;-83
2022/11/03 04:30:00;;;;;;;;;;;14.00;99.90;;;14.26;84.20;100789.16;5118243;28;19999;-84
2022/11/03 04:32:30;;;;;;;;;;;14.00;99.90;;;14.27;84.08;100768.72;5118032;28;19966;-84
2022/11/03 04:34:59;;;;;;;;;;;14.10;99.90;;;14.31;83.84;100781.97;5134109;27;19971;-85
2022/11/03 04:37:28;;;;;;;;;;;14.10;99.90;;;14.10;84.24;100785.03;5116851;28;20323;-84
2022/11/03 04:39:59;;;;;;;;;;;14.10;99.90;;;14.35;83.98;100777.44;5118250;28;19966;-85
2022/11/03 04:42:31;;;;;;;;;;;14.20;99.90;;;13.75;83.78;100656.34;5118045;28;20022;-84
2022/11/03 04:45:02;;;;;;;;;;;14.20;99.90;;;13.96;84.11;100744.53;5118235;28;19959;-85
2022/11/03 04:47:32;;;;;;;;;;;14.20;99.90;;;12.76;84.23;100514.00;5118078;28;19919;-84
2022/11/03 04:50:00;;;;;;;;;;;14.10;99.90;;;14.20;84.46;100724.53;5117602;28;19983;-83
2022/11/03 04:52:29;;;;;;;;;;;14.20;99.90;;;14.26;84.35;100724.41;5117689;28;19949;-85
2022/11/03 04:54:58;;;;;;;;;;;14.20;99.90;;;14.31;84.42;100757.13;5117451;28;20002;-85
2022/11/03 04:57:28;;;;;;;;;;;14.20;99.90;;;14.22;84.64;100706.75;5117577;28;19953;-85
2022/11/03 04:59:56;;;;;;;;;;;14.20;99.90;;;14.33;84.85;100752.66;5117770;28;19972;-84
2022/11/03 05:02:25;;;;;;;;;;;14.10;99.90;;;14.18;84.37;100723.69;5116649;28;19927;-86
2022/11/03 05:04:54;;;;;;;;;;;14.20;99.90;;;14.46;84.37;100743.50;5133862;27;19923;-84
2022/11/03 05:07:26;;;;;;;;;;;14.20;99.90;;;14.37;84.53;100738.38;5117594;28;20286;-84
2022/11/03 05:09:54;;;;;;;;;;;14.20;99.90;;;13.22;84.46;100501.59;5133371;27;19923;-85
2022/11/03 05:12:23;;;;;;;;;;;14.30;99.90;;;13.67;84.39;100554.63;5117380;28;19923;-84
2022/11/03 05:14:51;;;;;;;;;;;14.30;99.90;;;14.56;84.17;100747.69;5116022;28;19920;-85
2022/11/03 05:17:27;;;;;;;;;;;14.40;99.90;;;13.96;84.44;100656.78;5133501;27;19919;-85
2022/11/03 05:19:59;;;;;;;;;;;14.40;99.90;;;14.26;84.77;100665.88;5117245;28;19927;-85
2022/11/03 05:22:31;;;;;;;;;;;14.30;99.90;;;14.40;85.26;100738.34;5116930;28;19955;-84
2022/11/03 05:25:02;;;;;;;;;;;14.20;99.90;;;14.41;85.22;100693.06;5117002;28;20414;-85
2022/11/03 05:27:30;;;;;;;;;;;14.30;99.90;;;14.50;84.95;100691.94;5117150;28;19926;-85
2022/11/03 05:30:00;;;;;;;;;;;14.30;99.90;;;13.68;85.06;100569.69;5115557;28;19992;-85
2022/11/03 05:32:30;;;;;;;;;;;14.30;99.90;;;14.49;85.08;100690.22;5115739;28;19971;-86
2022/11/03 05:35:00;;;;;;;;;;;14.30;99.90;;;14.60;85.23;100682.84;5132714;27;19926;-85
2022/11/03 05:37:29;;;;;;;;;;;14.30;99.90;;;14.38;85.12;100668.31;5116683;28;20006;-85
2022/11/03 05:39:59;;;;;;;;;;;14.30;99.90;;;14.57;84.83;100666.97;5117021;28;19965;-85
2022/11/03 05:42:32;;;;;;;;;;;14.40;99.90;;;14.59;85.03;100696.19;5116499;28;19923;-86
2022/11/03 05:45:00;;;;;;;;;;;14.30;99.90;;;14.62;85.03;100685.47;5116830;28;19924;-83
2022/11/03 05:47:33;;;;;;;;;;;14.40;99.90;;;14.71;84.85;100670.13;5116523;28;19970;-86
2022/11/03 05:50:14;;;;;;;;;;;14.40;99.90;;;14.45;84.83;100640.63;5116514;28;20368;-85
2022/11/03 05:52:43;;;;;;;;;;;14.40;99.90;;;14.37;85.28;100647.91;5116492;28;19955;-86
2022/11/03 05:55:24;;;;;;;;;;;14.40;99.90;;;14.50;85.02;100664.47;5116488;28;20010;-85
2022/11/03 05:57:54;;;;;;;;;;;14.40;99.90;;;14.64;85.09;100665.88;5132612;27;19961;-85
2022/11/03 06:00:28;;;;;;;;;;;14.40;99.90;;;13.73;85.49;100528.81;5116228;28;19926;-84
2022/11/03 06:02:56;;;;;;;;;;;14.40;99.90;;;14.60;85.25;100650.91;5116239;28;20384;-84
2022/11/03 06:05:27;;;;;;;;;;;14.40;99.90;;;14.35;85.39;100671.00;5132223;27;20356;-85
2022/11/03 06:07:56;;;;;;;;;;;14.40;99.90;;;14.58;85.46;100652.72;5116030;28;19927;-86
2022/11/03 06:10:27;;;;;;;;;;;14.40;99.90;;;14.72;85.16;100676.34;5116020;28;19920;-86
2022/11/03 06:12:59;;;;;;;;;;;14.40;99.90;;;12.40;85.22;100321.94;5116287;28;20006;-86
2022/11/03 06:15:29;;;;;;;;;;;14.40;99.90;;;14.72;85.01;100634.63;5114942;28;20369;-85
2022/11/03 06:17:58;;;;;;;;;;;14.50;99.90;;;14.41;85.14;100588.38;5115909;28;19919;-86
2022/11/03 06:20:28;;;;;;;;;;;14.50;99.90;;;14.66;85.53;100650.75;5116173;28;20018;-86
2022/11/03 06:22:56;;;;;;;;;;;14.40;99.90;;;14.18;85.15;100551.66;5132076;27;19927;-86
2022/11/03 06:25:28;;;;;;;;;;;14.50;99.90;;;14.70;84.84;100638.22;5116405;28;20349;-86
2022/11/03 06:28:00;;;;;;;;;;;14.40;99.90;;;14.50;85.06;100587.28;5116049;28;19920;-86
2022/11/03 06:30:30;;;;;;;;;;;14.50;99.90;;;14.73;85.25;100638.19;5114676;28;19999;-86
2022/11/03 06:33:01;;;;;;;;;;;14.50;99.90;;;14.51;84.97;100591.69;5115480;28;19942;-87
2022/11/03 06:35:30;;;;;;;;;;;14.50;99.90;;;14.67;85.11;100598.38;5115599;28;19919;-86
2022/11/03 06:37:59;;;;;;;;;;;14.50;99.90;;;14.74;85.02;100621.28;5114963;28;19924;-85
2022/11/03 06:40:33;;;;;;;;;;;14.60;99.90;;;13.82;84.95;100467.44;5115990;28;19919;-87
2022/11/03 06:43:18;;;;;;;;;;;14.50;99.90;;;14.71;85.48;100637.34;5115534;28;19919;-86
2022/11/03 06:45:51;;;;;;;;;;;14.50;99.90;;;14.65;85.44;100650.78;5131473;27;19926;-85
2022/11/03 06:48:24;;;;;;;;;;;14.50;99.90;;;14.53;85.76;100593.41;5115290;28;19970;-86
2022/11/03 06:50:54;;;;;;;;;;;14.40;99.90;;;13.97;85.80;100509.63;5114671;28;19920;-83
2022/11/03 06:53:26;;;;;;;;;;;14.40;99.90;;;14.56;85.81;100582.69;5115074;28;19919;-84
2022/11/03 06:55:55;;;;;;;;;;;14.40;99.90;;;14.78;85.26;100646.91;5131154;27;20377;-84
2022/11/03 06:58:27;;;;;;;;;;;14.50;99.90;;;14.76;85.39;100635.41;5115453;28;19924;-85
2022/11/03 07:00:56;;;;;;;;;;;14.50;99.90;;;14.13;85.74;100505.66;5114116;28;20350;-86
2022/11/03 07:03:32;;;;;;;;;;;14.50;99.90;;;14.52;85.13;100583.66;5114710;28;19926;-84
2022/11/03 07:06:04;;;;;;;;;;;14.50;99.90;;;14.84;85.33;100636.09;5115151;28;20022;-80
2022/11/03 07:08:36;;;;;;;;;;;14.60;99.90;;;14.81;85.04;100617.53;5115505;28;19919;-84
2022/11/03 07:11:11;;;;;;;;;;;14.60;99.90;;;14.69;85.30;100565.47;5114892;28;19933;-83
2022/11/03 07:13:43;;;;;;;;;;;14.60;99.90;;;14.82;85.29;100609.53;5115308;28;19920;-92
2022/11/03 07:16:17;;;;;;;;;;;14.60;99.90;;;14.69;85.67;100608.06;5114726;28;20452;-85
2022/11/03 07:18:46;;;;;;;;;;;14.60;99.90;;;14.76;85.83;100588.38;5114615;28;20337;-85
2022/11/03 07:21:31;;;;;;;;;;;14.60;99.90;;;14.90;85.77;100628.84;5114810;28;20026;-82
2022/11/03 07:24:00;;;;;;;;;;;14.60;99.90;;;14.58;85.58;100590.63;5113772;28;19919;-85
2022/11/03 07:26:29;;;;;;;;;;;14.70;99.90;;;14.29;85.61;100519.50;5130568;27;20022;-80
2022/11/03 07:28:57;;;;;;;;;;;14.70;99.90;;;14.81;85.94;100613.09;5114272;28;20006;-75
2022/11/03 07:31:25;;;;;;;;;;;14.60;99.90;;;14.82;85.58;100598.88;5114446;28;19924;-78
2022/11/03 07:33:58;;;;;;;;;;;14.60;99.90;;;14.94;85.58;100618.97;5114383;28;19919;-76
2022/11/03 07:36:29;;;;;;;;;;;14.70;99.90;;;14.95;85.43;100602.94;5114511;28;19920;-75
2022/11/03 07:39:00;;;;;;;;;;;14.70;99.90;;;14.80;85.59;100598.03;5114343;28;19924;-83
2022/11/03 07:41:31;;;;;;;;;;;14.70;99.90;;;14.58;85.81;100591.50;5114577;28;19942;-75
2022/11/03 07:44:04;;;;;;;;;;;14.60;99.90;;;14.66;86.04;100610.81;5113837;28;19920;-82
2022/11/03 07:46:33;;;;;;;;;;;14.60;99.90;;;14.59;86.60;100593.25;5114170;28;19950;-80
2022/11/03 07:49:03;;;;;;;;;;;14.50;99.90;;;14.55;87.27;100604.00;5113275;28;19926;-82
2022/11/03 07:51:34;;;;;;;;;;;14.40;99.90;;;14.58;87.47;100583.50;5113989;28;19923;-81
2022/11/03 07:54:04;;;;;;;;;;;14.40;99.90;;;14.02;88.03;100529.00;5113777;28;19926;-75
2022/11/03 07:56:35;;;;;;;;;;;14.30;99.90;;;14.30;88.58;100587.78;5114285;28;19969;-76
2022/11/03 07:59:11;;;;;;;;;;;14.20;99.90;;;13.79;89.03;100506.53;5113044;28;19963;-75
2022/11/03 08:01:42;;;;;;;;;;;14.00;99.90;;;13.89;90.04;100537.31;5114024;28;20014;-76
2022/11/03 08:04:13;;;;;;;;;;;13.90;99.90;;;14.12;89.98;100574.88;5113355;28;19920;-76
2022/11/03 08:06:42;;;;;;;;;;;13.90;99.90;;;14.01;90.64;100553.88;5114144;28;19926;-76
2022/11/03 08:09:11;;;;;;;;;;;13.90;99.90;;;13.96;91.09;100557.50;5113818;28;19920;-78
2022/11/03 08:11:39;;;;;;;;;;;13.80;99.90;;;13.90;91.05;100570.97;5113716;28;20010;-78
2022/11/03 08:14:08;;;;;;;;;;;13.80;99.90;;;13.08;91.27;100402.78;5114013;28;19920;-78
2022/11/03 08:16:36;;;;;;;;;;;13.80;99.90;;;13.79;91.62;100535.75;5113879;28;19919;-78
2022/11/03 08:19:04;;;;;;;;;;;13.80;99.90;;;13.78;91.33;100504.78;5112767;28;19927;-79
2022/11/03 08:21:32;;;;;;;;;;;13.80;99.90;;;13.87;91.99;100531.16;5113825;28;19920;-78
2022/11/03 08:24:03;;;;;;;;;;;13.70;99.90;;;13.89;91.90;100519.56;5113803;28;19920;-77
2022/11/03 08:26:31;;;;;;;;;;;13.70;99.90;;;13.08;92.79;100405.44;5114057;28;19920;-77
2022/11/03 08:28:59;;;;;;;;;;;13.60;99.90;;;13.88;92.88;100499.19;5113089;28;19920;-77
2022/11/03 08:31:27;;;;;;;;;;;13.70;99.90;;;13.72;92.87;100488.97;5113694;28;19919;-78
2022/11/03 08:33:55;;;;;;;;;;;13.70;99.90;;;13.84;92.71;100500.19;5129801;28;19927;-78
2022/11/03 08:36:24;;;;;;;;;;;13.70;99.90;;;13.90;93.28;100504.50;5113998;28;19926;-78
2022/11/03 08:38:52;;;;;;;;;;;13.70;99.90;;;14.07;93.19;100481.03;5112483;28;20018;-78
2022/11/03 08:41:21;;;;;;;;;;;13.80;99.90;;;14.05;92.95;100489.03;5113988;28;20051;-73
2022/11/03 08:43:50;;;;;;;;;;;13.80;99.90;;;13.84;92.88;100459.44;5113555;28;19958;-77
2022/11/03 08:46:18;;;;;;;;;;;13.80;99.90;;;13.92;92.75;100490.25;5113833;28;19920;-74
2022/11/03 08:48:46;;;;;;;;;;;13.80;99.90;;;13.82;93.12;100437.34;5112597;28;20014;-79
2022/11/03 08:51:16;;;;;;;;;;;13.80;99.90;;;13.86;93.24;100450.50;5113802;28;19920;-78
2022/11/03 08:53:45;;;;;;;;;;;13.80;99.90;;;13.98;93.26;100452.00;5113807;28;19927;-79
2022/11/03 08:56:13;;;;;;;;;;;13.80;99.90;;;14.04;93.29;100459.81;5113452;28;19924;-78
2022/11/03 08:58:47;;;;;;;;;;;13.80;99.90;;;13.32;93.27;100338.44;5113469;28;20442;-78
2022/11/03 09:01:15;;;;;;;;;;;13.80;99.90;;;14.06;93.54;100456.22;5115690;28;19930;-78
2022/11/03 09:03:44;;;;;;;;;;;13.90;99.90;;;14.01;93.38;100451.94;5117590;28;19926;-77
2022/11/03 09:06:12;;;;;;;;;;;13.90;99.90;;;13.99;93.52;100451.09;5117240;28;19961;-78
2022/11/03 09:08:40;;;;;;;;;;;13.80;99.90;;;14.03;93.38;100461.59;5117488;28;19919;-78
2022/11/03 09:11:31;;;;;;;;;;;13.80;99.90;;;14.14;93.40;100448.03;5133133;27;19920;-85
2022/11/03 09:14:00;;;;;;;;;;;13.90;99.90;;;14.09;92.93;100449.97;5117065;28;19964;-83
2022/11/03 09:16:30;;;;;;;;;;;13.90;99.90;;;14.15;92.94;100455.13;5117334;28;19949;-78
2022/11/03 09:18:59;;;;;;;;;;;13.90;99.90;;;14.14;92.07;100410.81;5116976;28;19927;-72
2022/11/03 09:21:27;;;;;;;;;;;14.00;99.90;;;14.16;91.81;100441.78;5117316;28;20365;-82
2022/11/03 09:23:58;;;;;;;;;;;14.00;99.90;;;14.18;91.88;100434.63;5117938;28;19926;-80
2022/11/03 09:26:26;;;;;;;;;;;13.90;99.90;;;14.14;91.57;100419.66;5116046;28;19924;-82
2022/11/03 09:28:54;;;;;;;;;;;14.00;99.90;;;14.07;91.47;100409.22;5115893;28;20006;-83
2022/11/03 09:31:27;;;;;;;;;;;14.00;99.90;;;14.12;91.40;100402.88;5115798;28;19972;-82
2022/11/03 09:33:55;;;;;;;;;;;14.00;99.90;;;13.77;91.03;100339.09;5117094;28;19984;-83
2022/11/03 09:36:23;;;;;;;;;;;14.10;99.90;;;14.44;90.54;100413.53;5116886;28;19924;-82
2022/11/03 09:38:51;;;;;;;;;;;14.20;99.90;;;14.37;90.21;100365.84;5132438;27;19920;-82
2022/11/03 09:41:20;;;;;;;;;;;14.40;99.90;;;14.33;89.53;100369.50;5116631;28;20325;-83
2022/11/03 09:44:02;;;;;;;;;;;14.40;99.90;;;14.73;89.61;100395.91;5116604;28;19970;-83
2022/11/03 09:46:35;;;;;;;;;;;14.50;99.90;;;14.68;88.99;100398.69;5116532;28;20300;-83
2022/11/03 09:49:04;;;;;;;;;;;14.50;99.90;;;14.62;88.62;100395.31;5115618;28;19927;-83
2022/11/03 09:51:32;;;;;;;;;;;14.50;99.90;;;14.51;88.65;100376.13;5116923;28;19920;-82
2022/11/03 09:54:06;;;;;;;;;;;14.40;99.90;;;14.36;88.83;100348.16;5116311;28;20357;-83
2022/11/03 09:56:36;;;;;;;;;;;14.40;99.90;;;14.65;88.36;100364.19;5116299;28;19923;-82
2022/11/03 09:59:13;;;;;;;;;;;14.50;99.90;;;14.70;88.53;100394.19;5116164;28;19923;-83
2022/11/03 10:01:47;;;;;;;;;;;14.50;99.90;;;14.77;87.75;100355.81;5116234;28;19949;-83
2022/11/03 10:04:16;;;;;;;;;;;14.50;99.90;;;14.13;87.23;100276.94;5116565;28;19919;-81
2022/11/03 10:06:44;;;;;;;;;;;14.50;99.90;;;14.61;87.85;100348.31;5116338;28;19926;-81
2022/11/03 10:09:16;;;;;;;;;;;14.40;99.90;;;14.38;87.38;100309.94;5116008;28;20384;-82
2022/11/03 10:11:45;;;;;;;;;;;14.40;99.90;;;13.91;87.55;100217.31;5115692;28;20361;-81
2022/11/03 10:14:15;;;;;;;;;;;14.40;99.90;;;14.59;86.36;100352.81;5115867;28;19973;-83
2022/11/03 10:16:52;;;;;;;;;;;14.40;99.90;;;14.56;86.35;100331.59;5116197;28;19920;-83
2022/11/03 10:19:21;;;;;;;;;;;14.40;99.90;;;14.65;85.72;100356.19;5115785;28;20312;-81
2022/11/03 10:21:49;;;;;;;;;;;14.50;99.90;;;14.48;85.73;100300.78;5116443;28;20015;-83
2022/11/03 10:24:18;;;;;;;;;;;14.40;99.90;;;14.48;86.10;100333.63;5114705;28;20365;-84
2022/11/03 10:26:48;;;;;;;;;;;14.40;99.90;;;14.70;86.21;100332.94;5115690;28;19920;-82
2022/11/03 10:29:19;;;;;;;;;;;14.50;99.90;;;13.59;85.84;100167.72;5115610;28;19950;-85
2022/11/03 10:31:50;;;;;;;;;;;14.40;99.90;;;14.64;85.86;100321.59;5115623;28;19969;-84
2022/11/03 10:34:28;;;;;;;;;;;14.50;99.90;;;14.56;85.64;100303.19;5131722;27;20373;-84
2022/11/03 10:37:16;;;;;;;;;;;14.40;99.90;;;14.65;85.13;100281.66;5115563;28;20010;-85
2022/11/03 10:39:44;;;;;;;;;;;14.50;99.90;;;14.48;85.04;100277.75;5115561;28;20351;-85
2022/11/03 10:42:19;;;;;;;;;;;14.60;99.90;;;14.78;84.89;100301.66;5115575;28;20357;-83
2022/11/03 10:44:47;;;;;;;;;;;14.60;99.90;;;14.72;85.18;100280.53;5115397;28;19919;-85
2022/11/03 10:47:32;;;;;;;;;;;14.60;99.90;;;14.77;83.87;100293.72;5115292;28;20357;-84
2022/11/03 10:50:05;;;;;;;;;;;14.70;99.90;;;14.67;83.86;100255.88;5115263;28;20312;-84
2022/11/03 10:52:33;;;;;;;;;;;14.70;99.90;;;14.91;84.67;100287.03;5115262;28;19925;-85
2022/11/03 10:55:07;;;;;;;;;;;14.70;99.90;;;14.94;84.27;100283.41;5115137;28;20277;-83
2022/11/03 10:57:35;;;;;;;;;;;14.70;99.90;;;14.87;84.27;100273.84;5115926;28;19926;-84
2022/11/03 11:00:04;;;;;;;;;;;14.70;99.90;;;15.10;83.55;100277.53;5131148;27;19958;-83
2022/11/03 11:02:35;;;;;;;;;;;14.90;99.90;;;14.94;83.32;100233.66;5115041;28;19919;-84
2022/11/03 11:05:13;;;;;;;;;;;15.00;99.90;;;15.25;83.17;100266.38;5115128;28;20357;-85
2022/11/03 11:07:43;;;;;;;;;;;15.00;99.90;;;15.25;82.11;100269.03;5115262;28;19920;-84
2022/11/03 11:10:14;;;;;;;;;;;15.10;99.90;;;15.31;81.89;100284.81;5114804;28;19927;-84
2022/11/03 11:13:02;;;;;;;;;;;15.10;99.90;;;15.35;81.63;100253.59;5115104;28;19919;-84
2022/11/03 11:15:39;;;;;;;;;;;15.10;99.90;;;15.05;80.80;100212.00;5114893;28;20022;-82
2022/11/03 11:18:10;;;;;;;;;;;15.10;99.90;;;15.01;80.61;100208.59;5114747;28;20464;-84
2022/11/03 11:20:40;;;;;;;;;;;15.00;99.90;;;14.80;80.84;100206.63;5130726;27;20342;-83
2022/11/03 11:23:48;;;;;;;;;;;15.00;99.90;;;15.15;80.51;100254.28;5114425;28;19924;-83
2022/11/03 11:26:30;;;;;;;;;;;15.00;99.90;;;15.11;80.43;100212.69;5131031;27;20333;-83
2022/11/03 11:29:42;;;;;;;;;;;15.00;99.90;;;15.41;80.74;100204.59;5114833;28;19923;-84
2022/11/03 11:32:49;;;;;;;;;;;15.10;99.90;;;15.48;80.41;100216.78;5114489;28;19926;-83
2022/11/03 11:36:04;;;;;;;;;;;15.30;99.90;;;15.44;79.45;100224.03;5112799;28;19920;-82
2022/11/03 11:38:59;;;;;;;;;;;15.30;99.90;;;15.58;78.98;100199.56;5112895;28;20014;-84
2022/11/03 11:42:05;;;;;;;;;;;15.40;99.90;;;15.52;79.31;100178.44;5089736;28;19919;-84
2022/11/03 11:44:52;;;;;;;;;;;15.30;99.90;;;15.59;79.85;100162.19;5114468;28;19962;-83